createdAt,value
2023-01-20T00:00:12.979Z,-3.39
2023-01-20T00:02:47.082Z,-3.40
2023-01-20T00:05:16.164Z,-3.46
2023-01-20T00:07:47.501Z,-3.52
2023-01-20T00:10:16.364Z,-3.54
2023-01-20T00:12:47.172Z,-3.62
2023-01-20T00:15:15.962Z,-3.64
2023-01-20T00:17:44.736Z,-3.66
2023-01-20T00:20:16.192Z,-3.68
2023-01-20T00:22:44.758Z,-3.68
2023-01-20T00:25:14.095Z,-3.68
2023-01-20T00:27:42.828Z,-3.70
2023-01-20T00:30:13.035Z,-3.73
2023-01-20T00:32:45.039Z,-3.80
2023-01-20T00:35:17.530Z,-3.82
2023-01-20T00:37:46.076Z,-3.85
2023-01-20T00:40:14.854Z,-3.87
2023-01-20T00:42:44.127Z,-3.93
2023-01-20T00:45:15.859Z,-3.93
2023-01-20T00:47:44.683Z,-3.93
2023-01-20T00:50:14.785Z,-3.95
2023-01-20T00:52:43.395Z,-3.97
2023-01-20T00:55:12.022Z,-4.02
2023-01-20T00:57:40.922Z,-4.01
2023-01-20T01:00:11.162Z,-4.05
2023-01-20T01:02:40.450Z,-4.07
2023-01-20T01:05:09.730Z,-4.09
2023-01-20T01:07:39.701Z,-4.10
2023-01-20T01:10:09.151Z,-4.16
2023-01-20T01:12:37.773Z,-4.22
2023-01-20T01:15:06.865Z,-4.19
2023-01-20T01:17:35.515Z,-4.22
2023-01-20T01:20:04.336Z,-4.19
2023-01-20T01:22:33.687Z,-4.20
2023-01-20T01:25:03.764Z,-4.27
2023-01-20T01:27:32.564Z,-4.26
2023-01-20T01:30:01.343Z,-4.24
2023-01-20T01:32:30.073Z,-4.31
2023-01-20T01:34:58.681Z,-4.34
2023-01-20T01:37:31.014Z,-4.35
2023-01-20T01:40:01.598Z,-4.36
2023-01-20T01:42:32.302Z,-4.36
2023-01-20T01:45:26.398Z,-4.41
2023-01-20T01:48:02.857Z,-4.46
2023-01-20T01:50:35.983Z,-4.51
2023-01-20T01:53:04.735Z,-4.68
2023-01-20T01:55:39.679Z,-4.51
2023-01-20T01:58:11.320Z,-4.49
2023-01-20T02:00:41.345Z,-4.49
2023-01-20T02:03:11.235Z,-4.46
2023-01-20T02:05:40.372Z,-4.41
2023-01-20T02:08:09.468Z,-4.38
2023-01-20T02:10:38.252Z,-4.37
2023-01-20T02:13:07.181Z,-4.39
2023-01-20T02:15:42.015Z,-4.40
2023-01-20T02:21:58.819Z,-4.46
2023-01-20T02:24:59.798Z,-4.44
2023-01-20T02:27:46.800Z,-4.44
2023-01-20T02:30:50.763Z,-4.78
2023-01-20T02:33:25.569Z,-4.43
2023-01-20T02:35:57.351Z,-4.41
2023-01-20T02:38:29.848Z,-4.41
2023-01-20T02:41:05.675Z,-4.41
2023-01-20T02:43:37.131Z,-4.47
2023-01-20T02:46:13.820Z,-4.74
2023-01-20T02:48:47.285Z,-4.49
2023-01-20T02:51:19.302Z,-4.45
2023-01-20T02:53:51.521Z,-4.45
2023-01-20T02:56:20.777Z,-4.45
2023-01-20T02:58:52.029Z,-4.45
2023-01-20T03:01:26.046Z,-4.46
2023-01-20T03:04:00.281Z,-4.44
2023-01-20T03:06:31.497Z,-4.49
2023-01-20T03:09:02.392Z,-4.44
2023-01-20T03:11:34.755Z,-4.45
2023-01-20T03:14:09.775Z,-4.42
2023-01-20T03:16:38.534Z,-4.43
2023-01-20T03:19:08.788Z,-4.40
2023-01-20T03:21:37.669Z,-4.36
2023-01-20T03:24:15.934Z,-4.35
2023-01-20T03:26:44.335Z,-4.30
2023-01-20T03:29:13.233Z,-4.32
2023-01-20T03:31:43.913Z,-4.25
2023-01-20T03:34:20.525Z,-4.28
2023-01-20T03:36:49.522Z,-4.22
2023-01-20T03:39:18.769Z,-4.19
2023-01-20T03:42:09.125Z,-4.19
2023-01-20T03:44:50.041Z,-4.21
2023-01-20T03:47:29.357Z,-4.26
2023-01-20T03:50:08.145Z,-4.32
2023-01-20T03:52:47.191Z,-4.32
2023-01-20T03:55:22.514Z,-4.34
2023-01-20T03:57:55.391Z,-4.41
2023-01-20T04:00:25.743Z,-4.35
2023-01-20T04:02:55.571Z,-4.31
2023-01-20T04:05:25.661Z,-4.30
2023-01-20T04:07:54.949Z,-4.25
2023-01-20T04:10:24.635Z,-4.29
2023-01-20T04:12:53.499Z,-4.28
2023-01-20T04:15:23.507Z,-4.31
2023-01-20T04:17:52.274Z,-4.27
2023-01-20T04:20:21.172Z,-4.34
2023-01-20T04:22:54.369Z,-4.41
2023-01-20T04:25:26.897Z,-4.45
2023-01-20T04:27:55.707Z,-4.45
2023-01-20T04:30:24.694Z,-4.48
2023-01-20T04:32:53.442Z,-4.45
2023-01-20T04:35:22.014Z,-4.44
2023-01-20T04:37:51.980Z,-4.40
2023-01-20T04:40:20.528Z,-4.40
2023-01-20T04:42:51.514Z,-4.33
2023-01-20T04:45:20.173Z,-4.24
2023-01-20T04:47:48.691Z,-4.19
2023-01-20T04:50:17.666Z,-4.17
2023-01-20T04:52:46.357Z,-4.16
2023-01-20T04:55:16.890Z,-4.16
2023-01-20T04:57:45.840Z,-4.16
2023-01-20T05:00:20.208Z,-4.16
2023-01-20T05:02:48.812Z,-4.24
2023-01-20T05:05:17.922Z,-4.24
2023-01-20T05:07:47.096Z,-4.32
2023-01-20T05:10:17.291Z,-4.25
2023-01-20T05:12:46.017Z,-4.23
2023-01-20T05:15:15.997Z,-4.21
2023-01-20T05:17:44.894Z,-4.19
2023-01-20T05:20:14.471Z,-4.22
2023-01-20T05:22:43.423Z,-4.21
2023-01-20T05:25:12.199Z,-4.21
2023-01-20T05:27:42.375Z,-4.24
2023-01-20T05:30:12.104Z,-4.27
2023-01-20T05:32:40.809Z,-4.27
2023-01-20T05:35:10.434Z,-4.30
2023-01-20T05:37:39.635Z,-4.37
2023-01-20T05:40:09.213Z,-4.35
2023-01-20T05:42:37.732Z,-4.34
2023-01-20T05:45:09.851Z,-4.34
2023-01-20T05:47:38.541Z,-4.34
2023-01-20T05:50:07.764Z,-4.37
2023-01-20T05:52:36.490Z,-4.34
2023-01-20T05:55:05.361Z,-4.36
2023-01-20T05:57:33.899Z,-4.36
2023-01-20T06:00:02.718Z,-4.37
2023-01-20T06:02:33.824Z,-4.35
2023-01-20T06:05:02.981Z,-4.37
2023-01-20T06:07:32.492Z,-4.37
2023-01-20T06:10:02.772Z,-4.42
2023-01-20T06:12:31.284Z,-4.43
2023-01-20T06:15:00.130Z,-4.44
2023-01-20T06:17:28.583Z,-4.40
2023-01-20T06:19:58.872Z,-4.40
2023-01-20T06:22:28.353Z,-4.40
2023-01-20T06:24:56.805Z,-4.41
2023-01-20T06:27:25.196Z,-4.39
2023-01-20T06:29:54.037Z,-4.38
2023-01-20T06:32:22.501Z,-4.39
2023-01-20T06:34:53.136Z,-4.37
2023-01-20T06:37:23.048Z,-4.36
2023-01-20T06:39:51.660Z,-4.31
2023-01-20T06:42:20.707Z,-4.26
2023-01-20T06:44:49.705Z,-4.22
2023-01-20T06:47:18.366Z,-4.23
2023-01-20T06:49:46.679Z,-4.19
2023-01-20T06:52:15.369Z,-4.19
2023-01-20T06:54:47.365Z,-4.17
2023-01-20T06:57:16.199Z,-4.11
2023-01-20T06:59:45.103Z,-4.08
2023-01-20T07:02:18.803Z,-4.05
2023-01-20T07:04:47.513Z,-4.03
2023-01-20T07:07:16.479Z,-4.00
2023-01-20T07:09:46.767Z,-3.98
2023-01-20T07:12:15.433Z,-3.92
2023-01-20T07:14:44.375Z,-3.88
2023-01-20T07:17:13.909Z,-3.85
2023-01-20T07:19:42.385Z,-3.83
2023-01-20T07:22:13.003Z,-3.83
2023-01-20T07:24:49.329Z,-3.77
2023-01-20T07:27:20.250Z,-3.72
2023-01-20T07:29:48.981Z,-3.66
2023-01-20T07:32:20.731Z,-3.59
2023-01-20T07:34:50.329Z,-3.50
2023-01-20T07:37:18.731Z,-3.46
2023-01-20T07:39:48.841Z,-3.45
2023-01-20T07:42:17.373Z,-3.33
2023-01-20T07:44:46.348Z,-3.21
2023-01-20T07:47:15.259Z,-3.13
2023-01-20T07:49:43.971Z,-3.05
2023-01-20T07:52:33.208Z,-2.97
2023-01-20T07:55:03.272Z,-3.03
2023-01-20T07:57:31.872Z,-2.85
2023-01-20T08:00:02.674Z,-2.79
2023-01-20T08:02:31.371Z,-2.71
2023-01-20T08:05:01.017Z,-2.64
2023-01-20T08:07:29.626Z,-2.63
2023-01-20T08:10:01.339Z,-2.65
2023-01-20T08:12:31.417Z,-2.54
2023-01-20T08:15:00.488Z,-2.47
2023-01-20T08:17:29.098Z,-2.17
2023-01-20T08:19:57.575Z,-1.57
2023-01-20T08:22:26.440Z,-1.09
2023-01-20T08:24:55.053Z,-0.98
2023-01-20T08:27:23.417Z,-1.15
2023-01-20T08:29:55.735Z,-1.37
2023-01-20T08:32:50.892Z,-1.55
2023-01-20T08:35:19.626Z,-1.64
2023-01-20T08:37:48.478Z,-1.74
2023-01-20T08:40:17.871Z,-1.80
2023-01-20T08:42:46.733Z,-1.84
2023-01-20T08:45:17.017Z,-1.84
2023-01-20T08:47:46.276Z,-1.83
2023-01-20T08:50:16.831Z,-1.77
2023-01-20T08:52:45.580Z,-1.72
2023-01-20T08:55:14.603Z,-1.83
2023-01-20T08:57:43.520Z,-1.93
2023-01-20T09:00:14.063Z,-1.82
2023-01-20T09:02:44.503Z,-1.82
2023-01-20T09:05:15.134Z,-1.82
2023-01-20T09:07:45.524Z,-1.74
2023-01-20T09:10:15.232Z,-1.57
2023-01-20T09:12:44.432Z,-1.31
2023-01-20T09:15:15.579Z,-1.06
2023-01-20T09:17:45.834Z,-0.66
2023-01-20T09:20:15.179Z,-0.66
2023-01-20T09:22:44.501Z,-0.74
2023-01-20T09:25:13.872Z,-0.75
2023-01-20T09:27:43.167Z,-0.73
2023-01-20T09:30:14.650Z,-0.66
2023-01-20T09:32:43.327Z,-0.48
2023-01-20T09:35:13.914Z,-0.36
2023-01-20T09:38:00.199Z,-0.22
2023-01-20T09:41:00.406Z,-0.11
2023-01-20T09:43:55.545Z,-0.08
2023-01-20T09:46:34.005Z,-0.11
2023-01-20T09:49:25.801Z,-0.25
2023-01-20T09:52:20.227Z,-0.27
2023-01-20T09:54:52.640Z,-0.28
2023-01-20T09:57:23.772Z,-0.32
2023-01-20T09:59:55.359Z,-0.32
2023-01-20T10:02:28.525Z,-0.32
2023-01-20T10:05:00.765Z,-0.33
2023-01-20T10:07:36.549Z,-0.34
2023-01-20T10:10:12.230Z,-0.48
2023-01-20T10:12:46.596Z,-0.60
2023-01-20T10:15:19.837Z,-0.57
2023-01-20T10:17:53.150Z,-0.52
2023-01-20T10:20:28.225Z,-0.56
2023-01-20T10:23:02.876Z,-0.47
2023-01-20T10:25:37.757Z,-0.39
2023-01-20T10:28:10.699Z,-0.32
2023-01-20T10:30:40.842Z,-0.30
2023-01-20T10:33:18.421Z,-0.24
2023-01-20T10:35:58.789Z,-0.24
2023-01-20T10:38:37.131Z,-0.22
2023-01-20T10:41:15.572Z,-0.20
2023-01-20T10:43:44.597Z,-0.18
2023-01-20T10:46:21.685Z,-0.25
2023-01-20T10:49:16.631Z,-0.31
2023-01-20T10:51:50.765Z,-0.23
2023-01-20T10:54:28.782Z,-0.25
2023-01-20T10:56:58.659Z,-0.22
2023-01-20T10:59:30.832Z,-0.17
2023-01-20T11:02:11.989Z,-0.08
2023-01-20T11:04:41.345Z,-0.06
2023-01-20T11:07:15.336Z,-0.05
2023-01-20T11:09:45.995Z,-0.06
2023-01-20T11:12:17.192Z,-0.11
2023-01-20T11:14:46.836Z,-0.16
2023-01-20T11:17:17.334Z,0.09
2023-01-20T11:19:47.527Z,0.21
2023-01-20T11:22:20.886Z,0.23
2023-01-20T11:24:55.617Z,0.05
2023-01-20T11:27:25.697Z,0.21
2023-01-20T11:30:01.007Z,0.22
2023-01-20T11:32:32.155Z,0.28
2023-01-20T11:35:02.047Z,0.14
2023-01-20T11:37:40.512Z,0.08
2023-01-20T11:40:22.819Z,0.06
2023-01-20T11:42:56.472Z,-0.06
2023-01-20T11:45:29.315Z,0.00
2023-01-20T11:48:04.091Z,0.10
2023-01-20T11:50:38.305Z,0.25
2023-01-20T11:53:19.634Z,0.26
2023-01-20T11:55:58.013Z,0.42
2023-01-20T11:58:28.553Z,0.58
2023-01-20T12:01:06.305Z,0.61
2023-01-20T12:04:07.211Z,0.54
2023-01-20T12:07:22.727Z,0.52
2023-01-20T12:09:54.906Z,0.27
2023-01-20T12:12:30.511Z,0.25
2023-01-20T12:15:02.675Z,0.35
2023-01-20T12:17:40.178Z,0.25
2023-01-20T12:20:13.182Z,0.37
2023-01-20T12:22:47.709Z,0.42
2023-01-20T12:25:24.032Z,0.40
2023-01-20T12:27:57.196Z,0.49
2023-01-20T12:30:44.723Z,0.58
2023-01-20T12:33:24.840Z,0.53
2023-01-20T12:36:31.323Z,0.52
2023-01-20T12:39:32.679Z,0.44
2023-01-20T12:42:32.663Z,0.43
2023-01-20T12:45:06.186Z,0.31
2023-01-20T12:47:49.136Z,0.40
2023-01-20T12:50:25.361Z,0.32
2023-01-20T12:56:12.678Z,0.37
2023-01-20T12:58:49.715Z,0.42
2023-01-20T13:01:41.292Z,0.46
2023-01-20T13:04:32.421Z,0.45
2023-01-20T13:07:30.742Z,0.49
2023-01-20T13:10:17.893Z,0.52
2023-01-20T13:12:51.734Z,0.50
2023-01-20T13:15:24.004Z,0.50
2023-01-20T13:18:08.854Z,0.53
2023-01-20T13:20:40.818Z,0.54
2023-01-20T13:23:14.289Z,0.56
2023-01-20T13:25:44.130Z,0.38
2023-01-20T13:28:23.829Z,0.58
2023-01-20T13:30:54.543Z,0.44
2023-01-20T13:33:40.236Z,0.38
2023-01-20T13:36:17.909Z,0.36
2023-01-20T13:38:49.253Z,0.34
2023-01-20T13:41:49.802Z,0.39
2023-01-20T13:44:35.708Z,0.19
2023-01-20T13:47:05.026Z,0.28
2023-01-20T13:49:52.143Z,0.20
2023-01-20T13:52:57.890Z,0.22
2023-01-20T13:55:30.792Z,0.24
2023-01-20T13:58:01.691Z,0.18
2023-01-20T14:00:30.368Z,0.26
2023-01-20T14:03:29.024Z,0.20
2023-01-20T14:06:00.797Z,0.16
2023-01-20T14:08:31.172Z,0.17
2023-01-20T14:11:12.470Z,0.25
2023-01-20T14:13:41.726Z,0.29
2023-01-20T14:16:19.996Z,0.21
2023-01-20T14:18:49.766Z,0.12
2023-01-20T14:21:22.278Z,0.11
2023-01-20T14:23:53.613Z,0.09
2023-01-20T14:26:23.666Z,0.12
2023-01-20T14:28:54.055Z,0.17
2023-01-20T14:31:25.981Z,0.19
2023-01-20T14:33:57.885Z,0.24
2023-01-20T14:36:32.197Z,0.24
2023-01-20T14:39:04.061Z,0.24
2023-01-20T14:41:45.982Z,0.28
2023-01-20T14:44:19.199Z,0.20
2023-01-20T14:46:49.533Z,0.18
2023-01-20T14:49:19.780Z,0.03
2023-01-20T14:51:51.664Z,0.03
2023-01-20T14:54:37.856Z,0.05
2023-01-20T14:57:22.595Z,0.06
2023-01-20T15:00:03.996Z,0.05
2023-01-20T15:02:34.089Z,0.00
2023-01-20T15:05:02.879Z,-0.06
2023-01-20T15:07:32.843Z,-0.07
2023-01-20T15:10:06.706Z,-0.11
2023-01-20T15:13:00.658Z,-0.12
2023-01-20T15:15:32.310Z,-0.14
2023-01-20T15:18:17.915Z,-0.11
2023-01-20T15:20:53.736Z,-0.08
2023-01-20T15:23:34.984Z,-0.12
2023-01-20T15:26:09.993Z,-0.14
2023-01-20T15:28:40.507Z,-0.14
2023-01-20T15:33:58.308Z,-0.18
2023-01-20T15:36:30.361Z,-0.23
2023-01-20T15:39:00.592Z,-0.33
2023-01-20T15:41:29.298Z,-0.21
2023-01-20T15:43:57.911Z,-0.24
2023-01-20T15:46:26.519Z,-0.22
2023-01-20T15:48:55.298Z,-0.22
2023-01-20T15:51:24.060Z,-0.21
2023-01-20T15:53:52.745Z,-0.18
2023-01-20T15:56:26.285Z,-0.22
2023-01-20T15:58:55.216Z,-0.21
2023-01-20T16:01:30.015Z,-0.22
2023-01-20T16:03:58.868Z,-0.19
2023-01-20T16:06:31.380Z,-0.20
2023-01-20T16:09:02.335Z,-0.22
2023-01-20T16:11:32.637Z,-0.22
2023-01-20T16:14:04.338Z,-0.25
2023-01-20T16:16:33.624Z,-0.23
2023-01-20T16:19:02.346Z,-0.21
2023-01-20T16:21:31.184Z,-0.20
2023-01-20T16:24:00.412Z,-0.19
2023-01-20T16:26:33.357Z,-0.19
2023-01-20T16:29:15.081Z,-0.18
2023-01-20T16:31:43.753Z,-0.15
2023-01-20T16:34:12.500Z,-0.11
2023-01-20T16:36:40.923Z,-0.14
2023-01-20T16:39:09.576Z,-0.17
2023-01-20T16:41:39.387Z,-0.21
2023-01-20T16:44:07.904Z,-0.21
2023-01-20T16:46:36.851Z,-0.21
2023-01-20T16:49:05.454Z,-0.20
2023-01-20T16:51:34.762Z,-0.20
2023-01-20T16:54:04.118Z,-0.22
2023-01-20T16:56:34.302Z,-0.25
2023-01-20T16:59:05.785Z,-0.23
2023-01-20T17:01:34.676Z,-0.20
2023-01-20T17:04:05.005Z,-0.19
2023-01-20T17:06:35.601Z,-0.68
2023-01-20T17:09:06.933Z,-0.20
2023-01-20T17:11:37.102Z,-0.17
2023-01-20T17:14:17.007Z,-0.17
2023-01-20T17:16:46.122Z,-0.25
2023-01-20T17:19:17.425Z,-0.22
2023-01-20T17:21:46.113Z,-0.22
2023-01-20T17:24:14.977Z,-0.24
2023-01-20T17:26:43.844Z,-0.24
2023-01-20T17:29:13.879Z,-0.20
2023-01-20T17:31:43.147Z,-0.21
2023-01-20T17:34:12.897Z,-0.22
2023-01-20T17:36:41.633Z,-0.23
2023-01-20T17:39:12.210Z,-0.27
2023-01-20T17:41:40.960Z,-0.28
2023-01-20T17:44:09.809Z,-0.31
2023-01-20T17:46:39.932Z,-0.30
2023-01-20T17:49:11.236Z,-0.29
2023-01-20T17:51:39.864Z,-0.30
2023-01-20T17:54:18.237Z,-0.34
2023-01-20T17:56:49.076Z,-0.36
2023-01-20T17:59:18.058Z,-0.33
2023-01-20T18:01:48.436Z,-0.32
2023-01-20T18:04:17.344Z,-0.35
2023-01-20T18:06:46.696Z,-0.38
2023-01-20T18:09:18.542Z,-0.41
2023-01-20T18:11:47.263Z,-0.42
2023-01-20T18:14:16.133Z,-0.46
2023-01-20T18:16:44.992Z,-0.46
2023-01-20T18:19:15.851Z,-0.45
2023-01-20T18:21:44.944Z,-0.45
2023-01-20T18:24:13.802Z,-0.46
2023-01-20T18:26:43.854Z,-0.52
2023-01-20T18:29:15.245Z,-0.54
2023-01-20T18:31:48.776Z,-0.56
2023-01-20T18:34:18.991Z,-0.56
2023-01-20T18:36:50.796Z,-0.61
2023-01-20T18:39:21.551Z,-0.58
2023-01-20T18:42:16.907Z,-0.55
2023-01-20T18:44:47.188Z,-0.60
2023-01-20T18:47:18.527Z,-0.57
2023-01-20T18:49:48.654Z,-0.60
2023-01-20T18:52:19.404Z,-0.59
2023-01-20T18:54:48.998Z,-0.63
2023-01-20T18:57:17.669Z,-0.53
2023-01-20T18:59:46.322Z,-0.60
2023-01-20T19:02:15.217Z,-0.68
2023-01-20T19:04:43.862Z,-0.68
2023-01-20T19:07:14.072Z,-0.64
2023-01-20T19:09:48.856Z,-0.64
2023-01-20T19:12:18.042Z,-0.61
2023-01-20T19:14:47.020Z,-0.60
2023-01-20T19:17:16.575Z,-0.59
2023-01-20T19:19:49.660Z,-0.61
2023-01-20T19:22:19.602Z,-0.60
2023-01-20T19:24:48.511Z,-0.56
2023-01-20T19:27:17.191Z,-0.57
2023-01-20T19:29:49.985Z,-0.59
2023-01-20T19:32:18.720Z,-0.60
2023-01-20T19:34:50.412Z,-0.61
2023-01-20T19:37:20.842Z,-0.62
2023-01-20T19:39:53.231Z,-0.66
2023-01-20T19:42:23.729Z,-0.63
2023-01-20T19:44:53.584Z,-0.65
2023-01-20T19:47:21.935Z,-0.68
2023-01-20T19:49:50.772Z,-0.69
2023-01-20T19:52:24.035Z,-0.72
2023-01-20T19:54:53.299Z,-0.77
2023-01-20T19:57:22.988Z,-0.74
2023-01-20T19:59:51.815Z,-0.75
2023-01-20T20:02:21.020Z,-0.71
2023-01-20T20:04:49.670Z,-0.75
2023-01-20T20:07:18.029Z,-0.75
2023-01-20T20:09:48.397Z,-0.76
2023-01-20T20:12:18.097Z,-0.75
2023-01-20T20:14:48.551Z,-0.93
2023-01-20T20:17:17.367Z,-0.73
2023-01-20T20:19:46.326Z,-0.78
2023-01-20T20:22:15.681Z,-0.73
2023-01-20T20:24:44.299Z,-0.66
2023-01-20T20:27:14.941Z,-0.69
2023-01-20T20:29:44.205Z,-0.82
2023-01-20T20:32:13.150Z,-0.91
2023-01-20T20:34:42.000Z,-0.79
2023-01-20T20:37:10.738Z,-0.95
2023-01-20T20:39:39.714Z,-0.75
2023-01-20T20:42:38.027Z,-0.76
2023-01-20T20:45:07.700Z,-0.76
2023-01-20T20:47:36.638Z,-0.80
2023-01-20T20:50:06.093Z,-0.85
2023-01-20T20:52:37.112Z,-0.79
2023-01-20T20:55:06.595Z,-0.79
2023-01-20T20:57:40.745Z,-0.81
2023-01-20T21:00:16.273Z,-0.80
2023-01-20T21:02:45.227Z,-0.76
2023-01-20T21:05:13.967Z,-0.78
2023-01-20T21:07:42.767Z,-0.75
2023-01-20T21:10:14.334Z,-0.77
2023-01-20T21:12:44.654Z,-0.79
2023-01-20T21:15:13.992Z,-0.77
2023-01-20T21:17:42.550Z,-0.82
2023-01-20T21:20:14.943Z,-0.82
2023-01-20T21:22:46.636Z,-0.84
2023-01-20T21:25:18.709Z,-0.83
2023-01-20T21:27:49.242Z,-0.86
2023-01-20T21:30:18.918Z,-0.81
2023-01-20T21:32:48.243Z,-0.78
2023-01-20T21:35:17.486Z,-0.74
2023-01-20T21:37:46.436Z,-0.70
2023-01-20T21:40:16.381Z,-0.66
2023-01-20T21:42:50.247Z,-0.67
2023-01-20T21:45:18.159Z,-0.67
2023-01-20T21:47:48.646Z,-0.68
2023-01-20T21:50:35.627Z,-0.81
2023-01-20T21:53:06.966Z,-0.66
2023-01-20T21:55:41.519Z,-0.66
2023-01-20T21:58:11.935Z,-0.67
2023-01-20T22:00:44.394Z,-0.62
2023-01-20T22:03:13.299Z,-0.61
2023-01-20T22:05:41.745Z,-0.60
2023-01-20T22:08:10.289Z,-0.60
2023-01-20T22:10:39.334Z,-0.58
2023-01-20T22:13:39.803Z,-0.58
2023-01-20T22:16:10.133Z,-0.57
2023-01-20T22:18:39.344Z,-0.57
2023-01-20T22:21:09.605Z,-0.56
2023-01-20T22:23:38.242Z,-0.58
2023-01-20T22:26:17.945Z,-0.58
2023-01-20T22:28:48.333Z,-0.54
2023-01-20T22:31:50.638Z,-0.59
2023-01-20T22:34:12.572Z,-0.55
2023-01-20T22:36:43.024Z,-0.58
2023-01-20T22:39:14.230Z,-0.58
2023-01-20T22:41:43.640Z,-0.57
2023-01-20T22:44:13.656Z,-0.56
2023-01-20T22:46:42.231Z,-0.55
2023-01-20T22:49:10.956Z,-0.61
2023-01-20T22:51:39.733Z,-0.59
2023-01-20T22:54:10.920Z,-0.57
2023-01-20T22:56:40.524Z,-0.58
2023-01-20T22:59:09.165Z,-0.55
2023-01-20T23:01:41.101Z,-0.55
2023-01-20T23:04:11.262Z,-0.54
2023-01-20T23:06:40.581Z,-0.52
2023-01-20T23:09:13.556Z,-0.51
2023-01-20T23:11:42.547Z,-0.52
2023-01-20T23:14:13.560Z,-0.53
2023-01-20T23:16:44.695Z,-0.68
2023-01-20T23:19:13.823Z,-0.57
2023-01-20T23:21:45.782Z,-0.58
2023-01-20T23:24:14.564Z,-0.58
2023-01-20T23:26:45.219Z,-0.61
2023-01-20T23:29:14.346Z,-0.62
2023-01-20T23:31:45.911Z,-0.67
2023-01-20T23:34:19.630Z,-0.68
2023-01-20T23:36:49.383Z,-0.69
2023-01-20T23:39:18.172Z,-0.72
2023-01-20T23:41:46.783Z,-0.81
2023-01-20T23:44:15.473Z,-0.79
2023-01-20T23:46:45.655Z,-0.85
2023-01-20T23:49:17.861Z,-0.82
2023-01-20T23:51:46.724Z,-0.84
2023-01-20T23:54:15.789Z,-0.84
2023-01-20T23:56:44.469Z,-0.87
2023-01-20T23:59:13.614Z,-0.83
